createdAt,value
2022-08-28T00:01:33.007Z,99.90
2022-08-28T00:06:34.869Z,99.90
2022-08-28T00:11:37.564Z,99.90
2022-08-28T00:16:39.556Z,99.90
2022-08-28T00:21:41.884Z,99.90
2022-08-28T00:27:02.570Z,99.90
2022-08-28T00:32:04.772Z,99.90
2022-08-28T00:37:07.487Z,99.90
2022-08-28T00:42:10.271Z,99.90
2022-08-28T00:47:12.954Z,99.90
2022-08-28T00:52:16.286Z,99.90
2022-08-28T00:57:52.216Z,99.90
2022-08-28T01:02:54.046Z,99.90
2022-08-28T01:07:58.789Z,99.90
2022-08-28T01:13:01.615Z,99.90
2022-08-28T01:18:08.417Z,99.90
2022-08-28T01:23:20.820Z,99.90
2022-08-28T01:28:22.603Z,99.90
2022-08-28T01:33:28.024Z,99.90
2022-08-28T01:38:30.251Z,99.90
2022-08-28T01:43:32.165Z,99.90
2022-08-28T01:48:37.536Z,99.90
2022-08-28T01:53:39.799Z,99.90
2022-08-28T01:58:41.843Z,99.90
2022-08-28T02:03:44.011Z,99.90
2022-08-28T02:08:47.024Z,99.90
2022-08-28T02:13:50.746Z,99.90
2022-08-28T02:18:53.719Z,99.90
2022-08-28T02:23:55.524Z,99.90
2022-08-28T02:28:58.796Z,99.90
2022-08-28T02:34:00.816Z,99.90
2022-08-28T02:39:02.880Z,99.90
2022-08-28T02:44:05.023Z,99.90
2022-08-28T02:49:06.790Z,99.90
2022-08-28T02:54:08.581Z,99.90
2022-08-28T02:59:10.894Z,99.90
2022-08-28T03:04:13.056Z,99.90
2022-08-28T03:09:14.812Z,99.90
2022-08-28T03:14:16.621Z,99.90
2022-08-28T03:19:18.870Z,99.90
2022-08-28T03:24:20.957Z,99.90
2022-08-28T03:29:23.019Z,99.90
2022-08-28T03:34:24.795Z,99.90
2022-08-28T03:39:26.573Z,99.90
2022-08-28T03:44:28.368Z,99.90
2022-08-28T03:49:31.148Z,99.90
2022-08-28T03:54:32.973Z,99.90
2022-08-28T03:59:35.709Z,99.90
2022-08-28T04:04:37.538Z,99.90
2022-08-28T04:09:39.499Z,99.90
2022-08-28T04:14:41.668Z,99.90
2022-08-28T04:19:45.089Z,99.90
2022-08-28T04:24:46.919Z,99.90
2022-08-28T04:29:49.200Z,99.90
2022-08-28T04:34:51.433Z,99.90
2022-08-28T04:39:53.629Z,99.90
2022-08-28T04:44:59.664Z,99.90
2022-08-28T04:50:02.455Z,99.90
2022-08-28T04:55:05.072Z,99.90
2022-08-28T05:00:09.437Z,99.90
2022-08-28T05:05:11.743Z,99.90
2022-08-28T05:10:13.528Z,99.90
2022-08-28T05:15:15.347Z,99.90
2022-08-28T05:20:17.155Z,99.90
2022-08-28T05:25:19.004Z,99.90
2022-08-28T05:30:21.064Z,99.90
2022-08-28T05:35:22.912Z,99.90
2022-08-28T05:40:24.825Z,99.90
2022-08-28T05:45:26.631Z,99.90
2022-08-28T05:50:28.479Z,99.90
2022-08-28T05:55:30.259Z,99.90
2022-08-28T06:00:32.874Z,99.90
2022-08-28T06:05:34.696Z,99.90
2022-08-28T06:10:44.003Z,99.90
2022-08-28T06:15:48.317Z,99.90
2022-08-28T06:20:50.180Z,99.90
2022-08-28T06:25:52.743Z,99.90
2022-08-28T06:31:18.556Z,99.90
2022-08-28T06:36:17.159Z,99.90
2022-08-28T06:41:19.715Z,99.90
2022-08-28T06:46:22.022Z,91.20
2022-08-28T06:51:25.266Z,60.00
2022-08-28T06:56:27.328Z,47.30
2022-08-28T07:01:33.116Z,42.10
2022-08-28T07:06:38.272Z,43.50
2022-08-28T07:11:43.442Z,39.30
2022-08-28T07:16:45.282Z,38.20
2022-08-28T07:21:48.077Z,38.30
2022-08-28T07:26:49.927Z,37.00
2022-08-28T07:31:55.893Z,33.20
2022-08-28T07:37:04.048Z,34.30
2022-08-28T07:42:06.186Z,29.90
2022-08-28T07:47:08.678Z,28.90
2022-08-28T07:52:12.400Z,30.10
2022-08-28T07:57:15.211Z,29.70
2022-08-28T08:02:17.051Z,29.60
2022-08-28T08:07:20.406Z,29.20
2022-08-28T08:12:22.412Z,28.10
2022-08-28T08:17:24.291Z,27.50
2022-08-28T08:22:26.155Z,27.70
2022-08-28T08:27:28.613Z,26.90
2022-08-28T08:32:30.431Z,27.10
2022-08-28T08:37:32.446Z,30.20
2022-08-28T08:42:37.416Z,29.30
2022-08-28T08:47:51.376Z,27.70
2022-08-28T08:53:15.041Z,27.50
2022-08-28T08:58:32.892Z,26.70
2022-08-28T09:04:05.247Z,26.40
2022-08-28T09:09:17.017Z,25.60
2022-08-28T09:14:21.776Z,24.80
2022-08-28T09:19:29.276Z,24.30
2022-08-28T09:24:36.486Z,25.20
2022-08-28T09:29:47.403Z,26.30
2022-08-28T09:35:08.120Z,24.60
2022-08-28T09:40:27.258Z,24.00
2022-08-28T09:45:29.655Z,23.00
2022-08-28T09:50:40.807Z,25.00
2022-08-28T09:55:48.328Z,24.30
2022-08-28T10:01:16.149Z,23.70
2022-08-28T10:06:29.408Z,23.30
2022-08-28T10:11:56.513Z,23.40
2022-08-28T10:17:19.960Z,24.20
2022-08-28T10:22:32.489Z,26.40
2022-08-28T10:27:37.207Z,30.30
2022-08-28T10:32:41.848Z,33.00
2022-08-28T10:37:52.761Z,34.80
2022-08-28T10:43:05.239Z,34.90
2022-08-28T10:48:24.643Z,35.10
2022-08-28T10:54:07.835Z,34.00
2022-08-28T10:59:09.614Z,33.80
2022-08-28T11:04:25.181Z,36.60
2022-08-28T11:09:47.743Z,33.90
2022-08-28T11:14:53.840Z,32.80
2022-08-28T11:20:01.571Z,34.30
2022-08-28T11:25:09.644Z,34.50
2022-08-28T11:30:11.695Z,35.20
2022-08-28T11:35:45.703Z,34.60
2022-08-28T11:41:09.556Z,34.10
2022-08-28T11:46:31.584Z,35.60
2022-08-28T11:52:06.128Z,35.90
2022-08-28T11:57:28.219Z,32.30
2022-08-28T12:02:39.343Z,32.70
2022-08-28T12:07:44.528Z,34.00
2022-08-28T12:12:46.284Z,32.60
2022-08-28T12:17:50.180Z,33.40
2022-08-28T12:22:54.689Z,33.10
2022-08-28T12:28:00.243Z,34.10
2022-08-28T12:33:02.048Z,34.70
2022-08-28T12:38:07.187Z,35.80
2022-08-28T12:43:15.336Z,35.00
2022-08-28T12:48:33.874Z,34.90
2022-08-28T12:53:44.771Z,34.80
2022-08-28T12:58:47.848Z,33.50
2022-08-28T13:03:52.983Z,34.30
2022-08-28T13:09:03.271Z,33.90
2022-08-28T13:14:06.250Z,33.40
2022-08-28T13:19:08.048Z,32.70
2022-08-28T13:24:22.157Z,33.90
2022-08-28T13:29:24.826Z,35.50
2022-08-28T13:34:29.716Z,34.00
2022-08-28T13:39:33.486Z,34.70
2022-08-28T13:44:53.164Z,36.20
2022-08-28T13:49:54.946Z,34.70
2022-08-28T13:54:56.765Z,34.10
2022-08-28T14:00:01.410Z,33.70
2022-08-28T14:05:03.693Z,33.90
2022-08-28T14:10:06.256Z,35.60
2022-08-28T14:15:08.208Z,35.30
2022-08-28T14:20:10.662Z,34.20
2022-08-28T14:25:12.590Z,36.30
2022-08-28T14:30:14.829Z,35.30
2022-08-28T14:35:16.666Z,34.50
2022-08-28T14:40:18.574Z,34.80
2022-08-28T14:45:20.339Z,35.70
2022-08-28T14:50:22.349Z,35.70
2022-08-28T14:55:24.139Z,36.00
2022-08-28T15:00:26.042Z,36.90
2022-08-28T15:05:27.848Z,36.10
2022-08-28T15:10:29.762Z,36.80
2022-08-28T15:15:33.268Z,35.90
2022-08-28T15:20:44.108Z,37.10
2022-08-28T15:25:45.972Z,36.30
2022-08-28T15:30:48.052Z,42.00
2022-08-28T15:35:55.401Z,42.30
2022-08-28T15:41:15.970Z,40.90
2022-08-28T15:46:18.026Z,44.90
2022-08-28T15:51:22.773Z,47.70
2022-08-28T15:56:27.649Z,50.50
2022-08-28T16:01:29.634Z,51.00
2022-08-28T16:06:31.624Z,51.50
2022-08-28T16:11:33.935Z,52.70
2022-08-28T16:16:40.072Z,52.10
2022-08-28T16:21:48.766Z,58.60
2022-08-28T16:26:50.613Z,61.80
2022-08-28T16:31:52.557Z,59.30
2022-08-28T16:36:54.367Z,62.50
2022-08-28T16:41:56.346Z,68.10
2022-08-28T16:46:58.179Z,67.00
2022-08-28T16:52:00.141Z,67.30
2022-08-28T16:57:02.032Z,72.10
2022-08-28T17:02:03.877Z,74.60
2022-08-28T17:07:07.493Z,79.00
2022-08-28T17:12:09.395Z,90.20
2022-08-28T17:17:13.467Z,93.10
2022-08-28T17:22:33.380Z,91.40
2022-08-28T17:27:36.667Z,93.00
2022-08-28T17:32:38.534Z,96.70
2022-08-28T17:37:40.810Z,99.90
2022-08-28T17:42:44.492Z,99.90
2022-08-28T17:47:46.304Z,99.90
2022-08-28T17:52:48.470Z,99.90
2022-08-28T17:57:51.341Z,99.90
2022-08-28T18:02:54.399Z,99.90
2022-08-28T18:07:56.262Z,99.90
2022-08-28T18:12:58.031Z,99.90
2022-08-28T18:18:00.139Z,99.90
2022-08-28T18:23:02.494Z,99.90
2022-08-28T18:28:05.884Z,99.90
2022-08-28T18:33:08.666Z,99.90
2022-08-28T18:38:11.931Z,99.90
2022-08-28T18:43:14.250Z,99.90
2022-08-28T18:48:16.467Z,99.90
2022-08-28T18:53:21.526Z,99.90
2022-08-28T18:58:24.002Z,99.90
2022-08-28T19:03:26.726Z,99.90
2022-08-28T19:08:28.827Z,99.90
2022-08-28T19:13:30.714Z,99.90
2022-08-28T19:18:32.516Z,99.90
2022-08-28T19:23:34.395Z,99.90
2022-08-28T19:28:37.012Z,99.90
2022-08-28T19:33:42.036Z,99.90
2022-08-28T19:38:44.021Z,99.90
2022-08-28T19:43:45.795Z,99.90
2022-08-28T19:48:52.776Z,99.90
2022-08-28T19:53:58.704Z,99.90
2022-08-28T19:59:02.565Z,99.90
2022-08-28T20:04:06.120Z,99.90
2022-08-28T20:09:12.563Z,99.90
2022-08-28T20:14:17.483Z,99.90
2022-08-28T20:19:20.009Z,99.90
2022-08-28T20:24:24.186Z,99.90
2022-08-28T20:29:26.165Z,99.90
2022-08-28T20:34:28.001Z,99.90
2022-08-28T20:39:29.851Z,99.90
2022-08-28T20:44:32.899Z,99.90
2022-08-28T20:49:38.979Z,99.90
2022-08-28T20:54:44.869Z,99.90
2022-08-28T20:59:47.747Z,99.90
2022-08-28T21:04:50.801Z,99.90
2022-08-28T21:10:07.137Z,99.90
2022-08-28T21:15:12.423Z,99.90
2022-08-28T21:20:16.125Z,99.90
2022-08-28T21:25:21.212Z,99.90
2022-08-28T21:30:23.178Z,99.90
2022-08-28T21:35:27.305Z,99.90
2022-08-28T21:40:29.099Z,99.90
2022-08-28T21:45:30.968Z,99.90
2022-08-28T21:50:32.727Z,99.90
2022-08-28T21:55:34.549Z,99.90
2022-08-28T22:00:36.364Z,99.90
2022-08-28T22:05:39.390Z,99.90
2022-08-28T22:10:43.569Z,99.90
2022-08-28T22:15:46.794Z,99.90
2022-08-28T22:21:07.561Z,99.90
2022-08-28T22:26:12.727Z,99.90
2022-08-28T22:31:14.618Z,99.90
2022-08-28T22:36:17.455Z,99.90
2022-08-28T22:41:19.268Z,99.90
2022-08-28T22:46:21.510Z,99.90
2022-08-28T22:51:23.317Z,99.90
2022-08-28T22:56:25.133Z,99.90
2022-08-28T23:01:27.033Z,99.90
2022-08-28T23:06:30.413Z,99.90
2022-08-28T23:11:32.302Z,99.90
2022-08-28T23:16:35.339Z,99.90
2022-08-28T23:21:40.813Z,99.90
2022-08-28T23:26:46.341Z,99.90
2022-08-28T23:31:48.465Z,99.90
2022-08-28T23:36:50.418Z,99.90
2022-08-28T23:41:53.102Z,99.90
2022-08-28T23:46:54.936Z,99.90
2022-08-28T23:51:57.836Z,99.90
2022-08-28T23:57:01.525Z,99.90
